createdAt,value
2019-04-16T00:01:07.784Z,70.20
2019-04-16T00:03:42.232Z,70.10
2019-04-16T00:06:12.356Z,70.10
2019-04-16T00:08:44.044Z,70.10
2019-04-16T00:11:26.132Z,70.00
2019-04-16T00:14:03.478Z,70.00
2019-04-16T00:16:33.196Z,69.90
2019-04-16T00:19:05.639Z,69.90
2019-04-16T00:21:35.013Z,70.00
2019-04-16T00:24:10.739Z,69.90
2019-04-16T00:26:39.316Z,69.80
2019-04-16T00:29:09.362Z,69.90
2019-04-16T00:31:39.316Z,69.80
2019-04-16T00:34:13.434Z,69.80
2019-04-16T00:36:42.662Z,69.70
2019-04-16T00:39:11.143Z,69.70
2019-04-16T00:41:41.227Z,69.60
2019-04-16T00:44:09.810Z,69.70
2019-04-16T00:46:41.335Z,69.60
2019-04-16T00:49:09.885Z,69.60
2019-04-16T00:51:38.431Z,70.80
2019-04-16T00:54:11.139Z,69.60
2019-04-16T00:56:43.523Z,69.50
2019-04-16T00:59:11.077Z,69.50
2019-04-16T01:01:39.577Z,69.50
2019-04-16T01:04:08.042Z,69.40
2019-04-16T01:06:40.699Z,69.40
2019-04-16T01:09:10.993Z,69.40
2019-04-16T01:11:39.487Z,70.50
2019-04-16T01:14:08.959Z,69.40
2019-04-16T01:16:37.499Z,69.80
2019-04-16T01:19:09.524Z,70.50
2019-04-16T01:21:38.641Z,70.50
2019-04-16T01:24:08.877Z,70.90
2019-04-16T01:26:38.913Z,71.10
2019-04-16T01:29:19.452Z,71.20
2019-04-16T01:31:52.553Z,71.50
2019-04-16T01:34:28.647Z,71.80
2019-04-16T01:37:07.345Z,72.10
2019-04-16T01:39:37.467Z,73.80
2019-04-16T01:42:06.076Z,72.90
2019-04-16T01:44:35.198Z,73.10
2019-04-16T01:47:06.614Z,73.30
2019-04-16T01:49:39.352Z,73.60
2019-04-16T01:52:08.119Z,73.60
2019-04-16T01:54:37.610Z,73.90
2019-04-16T01:57:07.195Z,74.20
2019-04-16T01:59:38.091Z,74.20
2019-04-16T02:02:08.252Z,74.30
2019-04-16T02:04:38.254Z,74.60
2019-04-16T02:07:06.822Z,74.90
2019-04-16T02:09:36.913Z,75.10
2019-04-16T02:12:05.372Z,75.50
2019-04-16T02:14:35.584Z,75.70
2019-04-16T02:17:04.119Z,75.60
2019-04-16T02:19:34.132Z,76.20
2019-04-16T02:22:02.672Z,76.10
2019-04-16T02:24:32.672Z,76.00
2019-04-16T02:27:01.256Z,76.10
2019-04-16T02:29:31.064Z,76.20
2019-04-16T02:31:59.588Z,76.00
2019-04-16T02:34:29.565Z,76.30
2019-04-16T02:37:02.203Z,76.40
2019-04-16T02:39:47.324Z,76.50
2019-04-16T02:42:01.859Z,76.60
2019-04-16T02:44:31.373Z,76.70
2019-04-16T02:47:06.152Z,77.00
2019-04-16T02:49:33.782Z,77.20
2019-04-16T02:52:16.471Z,77.40
2019-04-16T02:54:52.093Z,77.50
2019-04-16T02:57:31.523Z,77.60
2019-04-16T03:00:04.095Z,77.80
2019-04-16T03:02:53.595Z,78.40
2019-04-16T03:05:29.076Z,78.60
2019-04-16T03:07:58.354Z,79.50
2019-04-16T03:10:26.956Z,79.20
2019-04-16T03:12:58.694Z,79.40
2019-04-16T03:15:37.254Z,80.90
2019-04-16T03:18:05.716Z,79.80
2019-04-16T03:20:37.236Z,80.30
2019-04-16T03:23:07.036Z,80.60
2019-04-16T03:25:35.590Z,80.50
2019-04-16T03:28:04.199Z,80.80
2019-04-16T03:30:40.220Z,81.10
2019-04-16T03:33:12.706Z,81.40
2019-04-16T03:35:38.368Z,81.70
2019-04-16T03:38:08.404Z,81.70
2019-04-16T03:40:41.898Z,82.40
2019-04-16T03:43:12.633Z,82.50
2019-04-16T03:45:41.224Z,82.30
2019-04-16T03:48:09.715Z,82.40
2019-04-16T03:50:38.178Z,82.60
2019-04-16T03:53:08.017Z,82.60
2019-04-16T03:55:36.562Z,82.50
2019-04-16T03:58:07.357Z,83.00
2019-04-16T04:00:43.733Z,83.30
2019-04-16T04:03:14.486Z,83.50
2019-04-16T04:05:44.584Z,84.10
2019-04-16T04:08:18.655Z,84.30
2019-04-16T04:10:47.145Z,84.60
2019-04-16T04:13:18.596Z,84.70
2019-04-16T04:15:47.860Z,84.90
2019-04-16T04:18:16.549Z,85.20
2019-04-16T04:20:50.614Z,85.80
2019-04-16T04:23:18.415Z,86.60
2019-04-16T04:25:46.923Z,86.60
2019-04-16T04:28:20.033Z,86.70
2019-04-16T04:30:50.271Z,87.00
2019-04-16T04:33:40.887Z,87.60
2019-04-16T04:36:10.201Z,87.90
2019-04-16T04:38:40.399Z,87.60
2019-04-16T04:41:10.445Z,88.00
2019-04-16T04:43:38.902Z,87.80
2019-04-16T04:46:14.391Z,88.40
2019-04-16T04:48:59.927Z,88.80
2019-04-16T04:51:27.127Z,88.60
2019-04-16T04:53:58.191Z,88.40
2019-04-16T04:56:28.672Z,88.50
2019-04-16T04:58:57.216Z,87.80
2019-04-16T05:01:31.501Z,87.90
2019-04-16T05:04:21.048Z,87.90
2019-04-16T05:06:51.365Z,87.90
2019-04-16T05:09:20.141Z,88.00
2019-04-16T05:11:51.801Z,87.90
2019-04-16T05:14:20.433Z,87.70
2019-04-16T05:16:52.055Z,87.60
2019-04-16T05:19:20.517Z,87.50
2019-04-16T05:21:50.058Z,87.60
2019-04-16T05:24:20.214Z,87.70
2019-04-16T05:26:48.679Z,87.30
2019-04-16T05:29:18.668Z,87.30
2019-04-16T05:31:47.347Z,87.00
2019-04-16T05:34:18.796Z,86.70
2019-04-16T05:36:48.108Z,85.90
2019-04-16T05:39:17.784Z,85.60
2019-04-16T05:41:46.327Z,84.50
2019-04-16T05:44:14.870Z,83.10
2019-04-16T05:46:46.611Z,82.00
2019-04-16T05:49:17.851Z,81.40
2019-04-16T05:51:46.335Z,80.20
2019-04-16T05:54:16.569Z,79.50
2019-04-16T05:56:49.447Z,79.00
2019-04-16T05:59:19.459Z,78.00
2019-04-16T06:01:52.649Z,77.80
2019-04-16T06:04:24.290Z,76.90
2019-04-16T06:06:51.717Z,76.80
2019-04-16T06:09:24.030Z,77.00
2019-04-16T06:11:52.533Z,76.50
2019-04-16T06:14:26.643Z,75.60
2019-04-16T06:16:57.662Z,75.00
2019-04-16T06:19:30.534Z,74.10
2019-04-16T06:22:07.742Z,73.90
2019-04-16T06:24:45.650Z,72.10
2019-04-16T06:27:25.497Z,71.90
2019-04-16T06:30:04.437Z,70.70
2019-04-16T06:32:41.010Z,70.00
2019-04-16T06:35:42.587Z,70.00
2019-04-16T06:38:20.070Z,70.10
2019-04-16T06:40:50.215Z,70.10
2019-04-16T06:43:26.507Z,70.20
2019-04-16T06:46:00.704Z,70.20
2019-04-16T06:48:38.851Z,70.30
2019-04-16T06:51:12.541Z,70.30
2019-04-16T06:53:48.583Z,70.40
2019-04-16T06:56:21.392Z,70.30
2019-04-16T06:58:57.215Z,70.40
2019-04-16T07:01:29.510Z,70.50
2019-04-16T07:04:00.196Z,68.80
2019-04-16T07:06:46.530Z,69.20
2019-04-16T07:09:25.232Z,67.40
2019-04-16T07:11:57.395Z,67.60
2019-04-16T07:14:27.766Z,67.20
2019-04-16T07:16:59.862Z,66.10
2019-04-16T07:19:27.663Z,66.20
2019-04-16T07:21:59.347Z,66.70
2019-04-16T07:24:30.814Z,65.80
2019-04-16T07:26:59.001Z,66.30
2019-04-16T07:29:35.315Z,66.20
2019-04-16T07:32:22.367Z,65.20
2019-04-16T07:34:52.659Z,65.20
2019-04-16T07:37:24.635Z,63.20
2019-04-16T07:40:08.326Z,63.10
2019-04-16T07:42:57.958Z,61.70
2019-04-16T07:45:25.493Z,60.90
2019-04-16T07:48:05.423Z,59.20
2019-04-16T07:50:45.783Z,58.60
2019-04-16T07:53:27.877Z,57.10
2019-04-16T07:55:58.733Z,56.20
2019-04-16T07:58:29.503Z,55.70
2019-04-16T08:00:59.995Z,54.20
2019-04-16T08:03:29.928Z,53.70
2019-04-16T08:06:03.219Z,52.50
2019-04-16T08:08:32.759Z,51.40
2019-04-16T08:11:03.923Z,50.50
2019-04-16T08:13:37.363Z,50.30
2019-04-16T08:16:06.103Z,50.30
2019-04-16T08:18:36.230Z,49.50
2019-04-16T08:21:10.551Z,48.80
2019-04-16T08:23:44.115Z,49.00
2019-04-16T08:26:13.794Z,50.10
2019-04-16T08:28:46.851Z,46.60
2019-04-16T08:31:18.004Z,46.60
2019-04-16T08:33:49.593Z,46.80
2019-04-16T08:36:19.421Z,47.00
2019-04-16T08:38:48.163Z,47.10
2019-04-16T08:41:23.762Z,47.40
2019-04-16T08:43:53.437Z,47.60
2019-04-16T08:46:22.132Z,47.70
2019-04-16T08:48:54.721Z,48.10
2019-04-16T08:51:30.390Z,46.50
2019-04-16T08:53:53.676Z,46.50
2019-04-16T08:56:22.166Z,46.10
2019-04-16T08:58:51.680Z,46.20
2019-04-16T09:01:23.597Z,44.80
2019-04-16T09:03:52.778Z,43.40
2019-04-16T09:06:21.239Z,43.00
2019-04-16T09:08:54.098Z,43.50
2019-04-16T09:11:24.096Z,43.00
2019-04-16T09:13:59.149Z,42.60
2019-04-16T09:16:27.824Z,42.20
2019-04-16T09:19:01.995Z,41.50
2019-04-16T09:21:34.136Z,42.00
2019-04-16T09:24:19.418Z,41.50
2019-04-16T09:26:49.592Z,41.40
2019-04-16T09:29:39.136Z,41.20
2019-04-16T09:32:17.024Z,40.70
2019-04-16T09:35:09.811Z,40.30
2019-04-16T09:37:53.305Z,41.00
2019-04-16T09:40:39.984Z,40.00
2019-04-16T09:43:16.613Z,40.30
2019-04-16T09:45:44.094Z,38.70
2019-04-16T09:48:14.152Z,38.50
2019-04-16T09:50:46.364Z,38.70
2019-04-16T09:53:12.852Z,38.00
2019-04-16T09:55:41.358Z,39.10
2019-04-16T09:58:13.040Z,39.00
2019-04-16T10:00:59.404Z,38.80
2019-04-16T10:03:29.514Z,38.40
2019-04-16T10:05:59.073Z,37.70
2019-04-16T10:08:29.397Z,37.80
2019-04-16T10:10:58.121Z,37.30
2019-04-16T10:13:31.742Z,37.10
2019-04-16T10:15:59.446Z,35.90
2019-04-16T10:18:34.398Z,36.20
2019-04-16T10:21:00.562Z,36.60
2019-04-16T10:23:30.756Z,36.30
2019-04-16T10:26:06.723Z,35.90
2019-04-16T10:28:37.717Z,37.00
2019-04-16T10:31:09.346Z,36.30
2019-04-16T10:33:39.307Z,35.30
2019-04-16T10:36:09.489Z,34.60
2019-04-16T10:38:45.572Z,36.60
2019-04-16T10:41:15.671Z,35.90
2019-04-16T10:43:58.070Z,35.50
2019-04-16T10:46:28.241Z,35.40
2019-04-16T10:49:00.944Z,35.50
2019-04-16T10:51:31.168Z,35.10
2019-04-16T10:54:01.363Z,34.90
2019-04-16T10:56:47.891Z,34.60
2019-04-16T10:59:28.389Z,34.40
2019-04-16T11:01:59.178Z,33.70
2019-04-16T11:04:45.233Z,33.60
2019-04-16T11:07:15.411Z,33.70
2019-04-16T11:09:45.425Z,33.80
2019-04-16T11:12:13.983Z,33.20
2019-04-16T11:14:44.646Z,32.90
2019-04-16T11:17:13.312Z,31.70
2019-04-16T11:19:44.490Z,32.10
2019-04-16T11:22:14.323Z,31.70
2019-04-16T11:24:42.833Z,31.20
2019-04-16T11:27:11.432Z,32.10
2019-04-16T11:29:44.062Z,31.60
2019-04-16T11:32:15.258Z,31.50
2019-04-16T11:34:43.805Z,32.20
2019-04-16T11:37:13.477Z,31.40
2019-04-16T11:39:42.074Z,30.80
2019-04-16T11:42:10.610Z,31.80
2019-04-16T11:44:40.221Z,32.00
2019-04-16T11:47:08.719Z,31.20
2019-04-16T11:49:37.527Z,30.40
2019-04-16T11:52:06.050Z,30.50
2019-04-16T11:54:36.430Z,30.20
2019-04-16T11:57:06.326Z,30.20
2019-04-16T11:59:38.319Z,29.70
2019-04-16T12:02:11.530Z,29.90
2019-04-16T12:04:44.338Z,29.60
2019-04-16T12:07:23.499Z,29.10
2019-04-16T12:10:10.195Z,28.60
2019-04-16T12:12:57.900Z,27.10
2019-04-16T12:15:35.826Z,27.90
2019-04-16T12:18:17.891Z,29.70
2019-04-16T12:20:52.233Z,27.90
2019-04-16T12:23:35.019Z,27.00
2019-04-16T12:26:20.036Z,26.20
2019-04-16T12:28:59.170Z,27.50
2019-04-16T12:31:29.318Z,28.10
2019-04-16T12:34:17.126Z,27.70
2019-04-16T12:36:47.385Z,27.70
2019-04-16T12:39:28.119Z,27.80
2019-04-16T12:42:14.770Z,28.50
2019-04-16T12:44:47.417Z,28.70
2019-04-16T12:47:33.407Z,29.50
2019-04-16T12:50:06.801Z,29.30
2019-04-16T12:52:47.189Z,29.40
2019-04-16T12:55:31.480Z,30.20
2019-04-16T12:58:01.009Z,29.70
2019-04-16T13:00:47.052Z,29.10
2019-04-16T13:03:20.275Z,29.00
2019-04-16T13:05:54.036Z,29.90
2019-04-16T13:08:26.589Z,28.70
2019-04-16T13:10:58.261Z,28.70
2019-04-16T13:13:28.375Z,28.80
2019-04-16T13:15:58.676Z,28.80
2019-04-16T13:18:34.726Z,30.00
2019-04-16T13:21:10.369Z,29.60
2019-04-16T13:23:40.495Z,30.90
2019-04-16T13:26:13.915Z,30.60
2019-04-16T13:28:43.334Z,30.10
2019-04-16T13:31:29.344Z,30.10
2019-04-16T13:34:00.798Z,30.30
2019-04-16T13:36:33.047Z,31.20
2019-04-16T13:39:14.924Z,31.30
2019-04-16T13:41:46.564Z,31.10
2019-04-16T13:44:17.207Z,30.90
2019-04-16T13:46:54.808Z,30.90
2019-04-16T13:49:32.244Z,31.00
2019-04-16T13:52:00.865Z,31.80
2019-04-16T13:54:34.966Z,31.60
2019-04-16T13:57:16.377Z,32.30
2019-04-16T13:59:56.802Z,33.20
2019-04-16T14:02:38.820Z,33.70
2019-04-16T14:05:10.984Z,33.50
2019-04-16T14:07:42.954Z,33.10
2019-04-16T14:10:11.652Z,32.90
2019-04-16T14:12:42.732Z,33.20
2019-04-16T14:15:11.812Z,33.60
2019-04-16T14:17:52.454Z,33.70
2019-04-16T14:20:14.385Z,34.20
2019-04-16T14:22:44.513Z,34.20
2019-04-16T14:25:13.264Z,34.10
2019-04-16T14:27:41.732Z,33.90
2019-04-16T14:30:13.480Z,33.90
2019-04-16T14:32:42.070Z,33.90
2019-04-16T14:35:15.257Z,34.90
2019-04-16T14:37:43.812Z,35.40
2019-04-16T14:40:22.163Z,35.90
2019-04-16T14:42:56.317Z,36.00
2019-04-16T14:45:33.157Z,36.50
2019-04-16T14:48:04.958Z,36.00
2019-04-16T14:50:33.718Z,36.30
2019-04-16T14:53:02.228Z,37.00
2019-04-16T14:55:59.171Z,38.00
2019-04-16T14:58:35.288Z,37.50
2019-04-16T15:01:23.572Z,37.90
2019-04-16T15:04:02.940Z,38.10
2019-04-16T15:06:52.904Z,38.20
2019-04-16T15:09:25.031Z,38.50
2019-04-16T15:11:58.393Z,38.60
2019-04-16T15:14:48.317Z,39.20
2019-04-16T15:17:34.451Z,38.70
2019-04-16T15:20:10.338Z,38.80
2019-04-16T15:22:56.660Z,38.80
2019-04-16T15:25:28.330Z,38.90
2019-04-16T15:28:02.407Z,39.30
2019-04-16T15:30:45.290Z,39.70
2019-04-16T15:33:31.661Z,40.00
2019-04-16T15:36:03.408Z,40.40
2019-04-16T15:38:50.101Z,40.70
2019-04-16T15:41:20.511Z,40.90
2019-04-16T15:44:06.842Z,41.10
2019-04-16T15:46:41.884Z,41.50
2019-04-16T15:49:29.111Z,41.50
2019-04-16T15:52:15.513Z,42.20
2019-04-16T15:55:04.261Z,42.50
2019-04-16T15:57:43.340Z,43.60
2019-04-16T16:00:19.933Z,44.10
2019-04-16T16:03:07.139Z,45.30
2019-04-16T16:05:52.003Z,46.20
2019-04-16T16:08:30.343Z,47.60
2019-04-16T16:11:00.164Z,48.00
2019-04-16T16:13:28.683Z,49.00
2019-04-16T16:15:58.792Z,50.10
2019-04-16T16:18:27.352Z,49.20
2019-04-16T16:20:57.462Z,49.70
2019-04-16T16:23:25.968Z,49.20
2019-04-16T16:25:56.212Z,49.20
2019-04-16T16:28:27.312Z,49.90
2019-04-16T16:30:57.577Z,50.00
2019-04-16T16:33:26.329Z,49.30
2019-04-16T16:35:58.619Z,50.00
2019-04-16T16:38:25.201Z,49.90
2019-04-16T16:40:54.765Z,49.90
2019-04-16T16:43:23.497Z,49.80
2019-04-16T16:45:53.758Z,49.90
2019-04-16T16:48:24.174Z,49.70
2019-04-16T16:50:52.712Z,49.60
2019-04-16T16:53:25.945Z,49.60
2019-04-16T16:55:56.589Z,49.60
2019-04-16T16:58:29.150Z,49.50
2019-04-16T17:01:13.768Z,49.40
2019-04-16T17:03:43.980Z,49.30
2019-04-16T17:06:16.840Z,49.20
2019-04-16T17:08:45.408Z,49.20
2019-04-16T17:11:16.510Z,49.10
2019-04-16T17:13:47.417Z,49.00
2019-04-16T17:16:15.910Z,49.00
2019-04-16T17:18:45.753Z,48.90
2019-04-16T17:21:14.394Z,49.00
2019-04-16T17:23:46.670Z,49.60
2019-04-16T17:26:16.049Z,50.60
2019-04-16T17:28:45.215Z,51.10
2019-04-16T17:31:14.162Z,51.70
2019-04-16T17:33:43.710Z,51.80
2019-04-16T17:36:12.413Z,52.10
2019-04-16T17:38:40.987Z,52.60
2019-04-16T17:41:11.159Z,52.70
2019-04-16T17:44:02.259Z,52.90
2019-04-16T17:46:40.888Z,53.10
2019-04-16T17:49:11.674Z,53.40
2019-04-16T17:51:57.801Z,53.70
2019-04-16T17:54:36.738Z,53.90
2019-04-16T17:57:18.829Z,54.30
2019-04-16T17:59:51.694Z,55.10
2019-04-16T18:02:37.857Z,55.20
2019-04-16T18:05:17.220Z,55.20
2019-04-16T18:07:59.184Z,55.50
2019-04-16T18:10:45.341Z,55.60
2019-04-16T18:13:21.308Z,55.90
2019-04-16T18:15:51.503Z,56.20
2019-04-16T18:18:21.882Z,56.60
2019-04-16T18:20:59.241Z,56.80
2019-04-16T18:23:40.709Z,57.20
2019-04-16T18:26:10.904Z,57.20
2019-04-16T18:28:41.003Z,57.60
2019-04-16T18:31:16.833Z,58.10
2019-04-16T18:33:50.052Z,58.70
2019-04-16T18:36:20.170Z,59.00
2019-04-16T18:38:50.299Z,59.70
2019-04-16T18:41:29.412Z,59.80
2019-04-16T18:44:17.195Z,60.80
2019-04-16T18:46:50.379Z,61.00
2019-04-16T18:49:20.525Z,61.20
2019-04-16T18:51:49.026Z,61.70
2019-04-16T18:54:17.612Z,62.20
2019-04-16T18:56:50.481Z,62.80
2019-04-16T18:59:18.966Z,64.40
2019-04-16T19:01:55.160Z,65.50
2019-04-16T19:04:26.209Z,66.60
2019-04-16T19:06:54.757Z,67.40
2019-04-16T19:09:23.379Z,67.60
2019-04-16T19:11:52.370Z,68.20
2019-04-16T19:14:22.263Z,68.60
2019-04-16T19:16:50.737Z,69.20
2019-04-16T19:19:22.344Z,69.40
2019-04-16T19:21:52.159Z,70.80
2019-04-16T19:24:22.303Z,70.80
2019-04-16T19:26:53.783Z,71.60
2019-04-16T19:29:22.331Z,71.60
2019-04-16T19:31:56.779Z,72.60
2019-04-16T19:34:23.830Z,72.90
2019-04-16T19:36:55.919Z,74.10
2019-04-16T19:39:23.625Z,74.10
2019-04-16T19:41:53.034Z,74.00
2019-04-16T19:44:22.311Z,74.00
2019-04-16T19:46:54.348Z,74.00
2019-04-16T19:49:25.521Z,74.00
2019-04-16T19:51:54.492Z,73.90
2019-04-16T19:54:25.923Z,73.90
2019-04-16T19:56:55.432Z,73.90
2019-04-16T19:59:23.953Z,73.90
2019-04-16T20:01:55.916Z,73.80
2019-04-16T20:04:22.914Z,73.80
2019-04-16T20:06:59.524Z,73.80
2019-04-16T20:09:22.612Z,73.90
2019-04-16T20:11:54.833Z,73.90
2019-04-16T20:14:23.201Z,73.80
2019-04-16T20:16:51.673Z,73.80
2019-04-16T20:19:24.418Z,74.70
2019-04-16T20:21:50.344Z,75.20
2019-04-16T20:24:25.179Z,75.80
2019-04-16T20:26:54.146Z,76.20
2019-04-16T20:29:22.608Z,76.70
2019-04-16T20:31:51.088Z,77.00
2019-04-16T20:34:19.658Z,77.60
2019-04-16T20:36:48.214Z,78.20
2019-04-16T20:39:17.695Z,78.20
2019-04-16T20:41:52.833Z,78.50
2019-04-16T20:44:18.158Z,78.70
2019-04-16T20:46:46.610Z,78.70
2019-04-16T20:49:16.962Z,78.50
2019-04-16T20:51:45.308Z,78.30
2019-04-16T20:54:15.074Z,79.20
2019-04-16T20:56:43.654Z,79.70
2019-04-16T20:59:13.122Z,79.40
2019-04-16T21:01:41.624Z,80.00
2019-04-16T21:04:13.127Z,80.50
2019-04-16T21:06:42.212Z,80.80
2019-04-16T21:09:10.855Z,81.30
2019-04-16T21:11:41.068Z,82.00
2019-04-16T21:14:12.379Z,82.60
2019-04-16T21:16:40.921Z,83.50
2019-04-16T21:19:22.917Z,83.40
2019-04-16T21:21:42.339Z,83.50
2019-04-16T21:24:13.576Z,83.80
2019-04-16T21:26:44.743Z,86.20
2019-04-16T21:29:21.613Z,85.40
2019-04-16T21:31:52.052Z,85.90
2019-04-16T21:34:32.077Z,86.70
2019-04-16T21:37:02.205Z,86.90
2019-04-16T21:39:36.538Z,87.60
2019-04-16T21:42:06.573Z,87.90
2019-04-16T21:44:35.060Z,88.60
2019-04-16T21:47:07.018Z,89.30
2019-04-16T21:49:45.003Z,90.00
2019-04-16T21:52:09.897Z,90.30
2019-04-16T21:54:39.279Z,90.70
2019-04-16T21:57:09.648Z,91.10
2019-04-16T21:59:38.050Z,91.30
2019-04-16T22:02:26.032Z,91.80
2019-04-16T22:04:54.697Z,91.70
2019-04-16T22:07:24.635Z,92.10
2019-04-16T22:09:53.575Z,91.90
2019-04-16T22:12:22.359Z,92.20
2019-04-16T22:14:50.952Z,92.60
2019-04-16T22:17:22.582Z,93.10
2019-04-16T22:19:54.203Z,93.30
2019-04-16T22:22:21.262Z,93.70
2019-04-16T22:24:51.808Z,93.70
2019-04-16T22:27:20.361Z,93.70
2019-04-16T22:29:48.811Z,93.70
2019-04-16T22:32:17.703Z,93.70
2019-04-16T22:34:46.231Z,94.20
2019-04-16T22:37:18.557Z,93.70
2019-04-16T22:39:51.185Z,93.70
2019-04-16T22:42:32.113Z,94.20
2019-04-16T22:45:18.731Z,93.70
2019-04-16T22:47:48.652Z,93.70
2019-04-16T22:50:17.566Z,93.70
2019-04-16T22:52:46.230Z,93.70
2019-04-16T22:55:24.408Z,93.70
2019-04-16T22:57:52.127Z,94.30
2019-04-16T23:00:25.214Z,94.50
2019-04-16T23:02:53.951Z,94.30
2019-04-16T23:05:22.411Z,94.70
2019-04-16T23:07:50.927Z,94.40
2019-04-16T23:10:21.808Z,94.60
2019-04-16T23:12:49.584Z,94.70
2019-04-16T23:15:18.561Z,95.10
2019-04-16T23:17:48.622Z,95.50
2019-04-16T23:20:28.526Z,96.00
2019-04-16T23:22:47.687Z,96.70
2019-04-16T23:25:18.535Z,97.00
2019-04-16T23:27:48.452Z,97.40
2019-04-16T23:30:18.454Z,98.10
2019-04-16T23:32:47.293Z,97.90
2019-04-16T23:35:15.784Z,98.20
2019-04-16T23:37:45.330Z,98.30
2019-04-16T23:40:17.512Z,99.10
2019-04-16T23:42:59.398Z,98.90
2019-04-16T23:45:32.368Z,99.40
2019-04-16T23:48:17.512Z,99.90
2019-04-16T23:50:47.694Z,99.90
2019-04-16T23:53:20.398Z,99.90
2019-04-16T23:55:59.585Z,99.90
2019-04-16T23:58:29.740Z,99.90
